Time;durP1;ratioP1;P1;durP2;ratioP2;P2;SDS_P1;SDS_P2;PMS_P1;PMS_P2;Temp;Humidity;BMP_temperature;BMP_pressure;BME280_temperature;BME280_humidity;BME280_pressure;Samples;Min_cycle;Max_cycle;Signal;HPM_P1;HPM_P2
2021/08/29 00:01:02;;;;;;;1.88;0.45;;;16.10;82.70;;;;;;5034306;28;20048;-74
2021/08/29 00:03:30;;;;;;;2.35;0.50;;;16.10;82.80;;;;;;5015788;28;20052;-73
2021/08/29 00:05:57;;;;;;;1.80;0.43;;;16.10;82.80;;;;;;4997115;28;20045;-74
2021/08/29 00:08:24;;;;;;;1.25;0.60;;;16.10;82.80;;;;;;5017382;28;20037;-74
2021/08/29 00:10:51;;;;;;;1.00;0.47;;;16.20;82.90;;;;;;5033436;28;20135;-75
2021/08/29 00:13:18;;;;;;;2.00;0.57;;;16.20;82.90;;;;;;5017780;28;20159;-74
2021/08/29 00:15:45;;;;;;;1.67;0.50;;;16.10;82.90;;;;;;5033114;28;20422;-74
2021/08/29 00:18:12;;;;;;;1.63;0.57;;;16.20;82.90;;;;;;5030170;28;20041;-73
2021/08/29 00:20:39;;;;;;;3.67;0.52;;;16.20;83.00;;;;;;5046672;28;20068;-73
2021/08/29 00:23:06;;;;;;;2.20;0.50;;;16.20;83.00;;;;;;5032887;28;20065;-74
2021/08/29 00:25:33;;;;;;;1.38;0.68;;;16.20;82.90;;;;;;5049215;28;20124;-74
2021/08/29 00:28:00;;;;;;;2.30;0.50;;;16.20;82.90;;;;;;5015982;28;20048;-73
2021/08/29 00:30:27;;;;;;;2.67;0.70;;;16.20;83.00;;;;;;5030438;28;20061;-73
2021/08/29 00:32:54;;;;;;;1.98;0.52;;;16.20;83.00;;;;;;5032347;28;20037;-73
2021/08/29 00:35:22;;;;;;;2.28;0.77;;;16.20;83.00;;;;;;5028513;28;20069;-73
2021/08/29 00:37:49;;;;;;;3.72;0.50;;;16.30;83.10;;;;;;5034928;28;20120;-73
2021/08/29 00:40:17;;;;;;;2.33;0.80;;;16.30;83.10;;;;;;5030217;28;20071;-73
2021/08/29 00:42:49;;;;;;;1.95;0.60;;;16.30;83.10;;;;;;5045628;28;20045;-74
2021/08/29 00:45:24;;;;;;;4.90;0.80;;;16.20;83.10;;;;;;5017969;28;20489;-74
2021/08/29 00:47:52;;;;;;;3.40;0.57;;;16.20;83.10;;;;;;5030220;28;20137;-74
2021/08/29 00:50:19;;;;;;;1.88;0.52;;;16.20;83.20;;;;;;5017939;28;20084;-74
2021/08/29 00:52:47;;;;;;;3.25;0.63;;;16.20;83.20;;;;;;5005109;28;20033;-74
2021/08/29 00:55:16;;;;;;;1.17;0.50;;;16.30;83.30;;;;;;5017064;28;20052;-74
2021/08/29 00:57:47;;;;;;;3.22;0.70;;;16.30;83.20;;;;;;5002874;28;20130;-75
2021/08/29 01:00:18;;;;;;;1.77;0.57;;;16.30;83.20;;;;;;5016859;28;20570;-74
2021/08/29 01:02:50;;;;;;;;;;;16.30;83.30;;;;;;5015053;28;20043;-74
2021/08/29 01:05:27;;;;;;;3.05;0.65;;;16.30;83.30;;;;;;5033508;28;19933;-74
2021/08/29 01:08:22;;;;;;;4.73;0.73;;;16.20;83.30;;;;;;5044829;28;20049;-74
2021/08/29 01:10:58;;;;;;;2.15;0.50;;;16.30;83.40;;;;;;5028243;28;20088;-74
2021/08/29 01:13:31;;;;;;;2.60;0.70;;;16.30;83.40;;;;;;5033883;28;20214;-74
2021/08/29 01:16:07;;;;;;;2.65;0.63;;;16.30;83.40;;;;;;5015280;28;20037;-73
2021/08/29 01:18:42;;;;;;;2.90;1.02;;;16.30;83.40;;;;;;5032929;28;20041;-77
2021/08/29 01:21:17;;;;;;;1.52;0.70;;;16.30;83.40;;;;;;5028370;28;20037;-77
2021/08/29 01:23:47;;;;;;;3.28;0.95;;;16.30;83.40;;;;;;5035709;28;20044;-77
2021/08/29 01:26:38;;;;;;;2.45;0.88;;;16.30;84.00;;;;;;5029816;28;20049;-77
2021/08/29 01:29:07;;;;;;;3.15;0.70;;;16.40;83.40;;;;;;5030756;28;20076;-78
2021/08/29 01:31:38;;;;;;;2.90;0.60;;;16.40;83.50;;;;;;5016406;28;20060;-78
2021/08/29 01:34:09;;;;;;;3.05;0.60;;;16.40;83.50;;;;;;5024076;28;20394;-79
2021/08/29 01:36:41;;;;;;;3.03;0.60;;;16.40;83.50;;;;;;5030153;28;20485;-77
2021/08/29 01:39:15;;;;;;;2.45;0.50;;;16.40;84.10;;;;;;5031038;28;20099;-79
2021/08/29 01:41:44;;;;;;;2.50;0.60;;;16.40;83.50;;;;;;5045195;28;20041;-77
2021/08/29 01:44:13;;;;;;;2.72;0.70;;;16.40;83.40;;;;;;5011204;28;20489;-77
2021/08/29 01:46:42;;;;;;;2.50;0.82;;;16.40;83.50;;;;;;5026688;28;20048;-78
2021/08/29 01:49:11;;;;;;;6.63;1.00;;;16.40;83.50;;;;;;5008618;28;20158;-77
2021/08/29 01:51:41;;;;;;;3.40;0.60;;;16.40;83.60;;;;;;5032978;28;20095;-77
2021/08/29 01:54:17;;;;;;;2.78;1.00;;;16.40;83.60;;;;;;5027070;28;20191;-77
2021/08/29 01:57:00;;;;;;;2.85;0.98;;;16.40;83.70;;;;;;5017541;28;20041;-77
2021/08/29 01:59:29;;;;;;;1.98;0.80;;;16.40;83.70;;;;;;5050776;28;20041;-77
2021/08/29 02:01:57;;;;;;;4.00;0.80;;;16.40;83.70;;;;;;5046055;28;20045;-77
2021/08/29 02:04:27;;;;;;;3.47;0.90;;;16.40;83.80;;;;;;5030988;28;20044;-78
2021/08/29 02:07:17;;;;;;;2.42;0.75;;;16.50;83.80;;;;;;5047429;28;20433;-77
2021/08/29 02:09:49;;;;;;;3.05;0.82;;;16.50;83.70;;;;;;5032856;28;20052;-77
2021/08/29 02:12:17;;;;;;;;;;;16.40;83.70;;;;;;5011397;28;20056;-77
2021/08/29 02:15:00;;;;;;;1.60;0.70;;;16.40;83.70;;;;;;5031089;28;21541;-77
2021/08/29 02:17:29;;;;;;;2.42;0.52;;;16.50;83.70;;;;;;5023575;28;20044;-77
2021/08/29 02:20:03;;;;;;;2.17;0.65;;;16.50;83.70;;;;;;5015530;28;20453;-77
2021/08/29 02:22:33;;;;;;;4.45;0.70;;;16.50;83.70;;;;;;5028443;28;20039;-77
2021/08/29 02:25:02;;;;;;;2.50;0.82;;;16.50;83.70;;;;;;5013938;28;20068;-77
2021/08/29 02:27:29;;;;;;;2.70;0.77;;;16.40;83.70;;;;;;5032886;28;20182;-77
2021/08/29 02:30:00;;;;;;;2.90;0.90;;;16.40;83.80;;;;;;5029492;28;20041;-78
2021/08/29 02:32:28;;;;;;;2.78;0.93;;;16.40;83.80;;;;;;5029309;28;20040;-76
2021/08/29 02:34:56;;;;;;;2.60;1.00;;;16.50;83.90;;;;;;5045059;28;20098;-77
2021/08/29 02:37:34;;;;;;;5.20;0.80;;;16.40;83.80;;;;;;5029227;28;20044;-77
2021/08/29 02:40:10;;;;;;;1.60;0.60;;;16.40;83.80;;;;;;5029818;28;20060;-77
2021/08/29 02:42:40;;;;;;;5.78;1.45;;;16.50;83.80;;;;;;5021898;28;20072;-77
2021/08/29 02:45:12;;;;;;;1.95;0.90;;;16.40;83.80;;;;;;5046262;28;20448;-78
2021/08/29 02:47:41;;;;;;;2.92;1.00;;;16.40;83.80;;;;;;5048695;28;20094;-77
2021/08/29 02:50:09;;;;;;;3.55;1.27;;;16.40;83.90;;;;;;5030530;28;20406;-77
2021/08/29 02:52:42;;;;;;;7.97;1.73;;;16.40;83.90;;;;;;5016206;28;20132;-77
2021/08/29 02:55:14;;;;;;;6.78;1.77;;;16.50;84.00;;;;;;5020474;28;20052;-77
2021/08/29 02:57:45;;;;;;;5.75;1.83;;;16.40;83.80;;;;;;5017216;28;20547;-77
2021/08/29 03:00:32;;;;;;;5.25;2.10;;;16.40;83.70;;;;;;5048691;28;20094;-77
2021/08/29 03:03:07;;;;;;;5.40;2.35;;;16.40;83.70;;;;;;5018415;28;20044;-78
2021/08/29 03:05:35;;;;;;;4.90;2.78;;;16.50;83.80;;;;;;5002687;28;20108;-77
2021/08/29 03:08:02;;;;;;;5.95;3.38;;;16.40;83.70;;;;;;5022272;28;20094;-78
2021/08/29 03:10:32;;;;;;;10.65;3.97;;;16.50;83.80;;;;;;5036270;28;20072;-78
2021/08/29 03:13:01;;;;;;;4.63;2.67;;;16.50;83.60;;;;;;5013363;28;20048;-77
2021/08/29 03:15:36;;;;;;;6.57;3.75;;;16.50;83.60;;;;;;5050348;28;20045;-77
2021/08/29 03:18:24;;;;;;;8.52;3.53;;;16.50;83.60;;;;;;5031407;28;20408;-78
2021/08/29 03:20:52;;;;;;;8.73;4.40;;;16.50;83.60;;;;;;5026302;28;20092;-78
2021/08/29 03:23:19;;;;;;;9.07;5.07;;;16.50;83.50;;;;;;5027745;28;20036;-78
2021/08/29 03:25:47;;;;;;;8.95;5.95;;;16.50;83.60;;;;;;5018150;28;20041;-78
2021/08/29 03:28:14;;;;;;;10.02;5.72;;;16.40;83.80;;;;;;4999018;28;20056;-77
2021/08/29 03:30:41;;;;;;;12.38;7.38;;;16.20;84.20;;;;;;5020917;28;20044;-78
2021/08/29 03:33:10;;;;;;;11.27;6.85;;;16.10;84.70;;;;;;5021932;28;20052;-78
2021/08/29 03:35:42;;;;;;;10.80;7.03;;;16.00;84.90;;;;;;5017508;28;20095;-77
2021/08/29 03:38:11;;;;;;;12.88;7.72;;;16.00;85.10;;;;;;5031130;28;20450;-78
2021/08/29 03:40:39;;;;;;;12.95;7.57;;;16.00;85.30;;;;;;5015924;28;20503;-77
2021/08/29 03:43:07;;;;;;;9.68;6.30;;;15.90;85.40;;;;;;5027094;28;20040;-77
2021/08/29 03:45:36;;;;;;;12.57;5.80;;;15.90;85.40;;;;;;5033332;28;20456;-78
2021/08/29 03:48:03;;;;;;;10.27;5.85;;;15.90;85.40;;;;;;5017126;28;20037;-78
2021/08/29 03:50:31;;;;;;;8.60;5.18;;;16.00;85.50;;;;;;5030593;28;20390;-78
2021/08/29 03:52:58;;;;;;;10.00;5.03;;;16.00;85.40;;;;;;5003757;28;20052;-77
2021/08/29 03:55:33;;;;;;;8.23;5.05;;;16.00;85.40;;;;;;5030194;28;20107;-78
2021/08/29 03:58:02;;;;;;;7.43;4.05;;;16.00;85.40;;;;;;5032342;28;20114;-77
2021/08/29 04:00:39;;;;;;;8.23;4.70;;;16.10;85.40;;;;;;5011686;28;20420;-78
2021/08/29 04:03:07;;;;;;;6.75;3.85;;;16.10;85.40;;;;;;5045713;28;20489;-77
2021/08/29 04:06:02;;;;;;;6.63;3.85;;;16.10;85.30;;;;;;5034317;28;20457;-78
2021/08/29 04:08:39;;;;;;;6.35;3.40;;;16.10;85.40;;;;;;5013403;28;20037;-78
2021/08/29 04:11:09;;;;;;;7.07;2.95;;;16.10;85.30;;;;;;5032615;28;20133;-78
2021/08/29 04:13:39;;;;;;;8.48;2.70;;;16.10;85.40;;;;;;5011025;28;20059;-77
2021/08/29 04:16:11;;;;;;;5.25;2.72;;;16.10;85.30;;;;;;5016647;28;20063;-77
2021/08/29 04:18:45;;;;;;;3.83;1.98;;;16.10;85.30;;;;;;5028778;28;20045;-78
2021/08/29 04:21:19;;;;;;;3.70;2.05;;;16.20;85.30;;;;;;5047579;28;20395;-77
2021/08/29 04:23:46;;;;;;;4.25;2.22;;;16.20;85.40;;;;;;5046542;28;20076;-78
2021/08/29 04:26:14;;;;;;;8.02;1.67;;;16.20;85.40;;;;;;5031308;28;20063;-78
2021/08/29 04:28:43;;;;;;;5.05;1.80;;;16.20;85.40;;;;;;5015970;28;20134;-77
2021/08/29 04:31:15;;;;;;;3.17;1.17;;;16.20;85.30;;;;;;5032525;28;20049;-78
2021/08/29 04:33:56;;;;;;;4.78;1.10;;;16.20;85.30;;;;;;5032802;28;20045;-77
2021/08/29 04:36:43;;;;;;;3.22;1.08;;;16.20;85.40;;;;;;5028808;28;20045;-77
2021/08/29 04:39:29;;;;;;;5.82;1.27;;;16.20;85.40;;;;;;5032597;28;20401;-77
2021/08/29 04:41:57;;;;;;;2.10;0.85;;;16.20;85.40;;;;;;5017830;28;20048;-77
2021/08/29 04:44:26;;;;;;;2.20;0.80;;;16.20;85.40;;;;;;5016477;28;20683;-78
2021/08/29 04:46:54;;;;;;;2.65;0.80;;;16.30;85.40;;;;;;5015040;28;20086;-78
2021/08/29 04:49:21;;;;;;;5.90;1.20;;;16.30;85.40;;;;;;5015645;28;20056;-78
2021/08/29 04:51:49;;;;;;;3.67;1.17;;;16.30;85.50;;;;;;5048688;28;20056;-78
2021/08/29 04:54:17;;;;;;;5.47;1.27;;;16.30;85.40;;;;;;5013572;28;20433;-78
2021/08/29 04:56:44;;;;;;;3.72;1.00;;;16.30;85.40;;;;;;5029971;28;20582;-78
2021/08/29 04:59:15;;;;;;;3.88;1.13;;;16.30;85.50;;;;;;5012054;28;20057;-78
2021/08/29 05:01:42;;;;;;;4.78;1.10;;;16.30;85.60;;;;;;5031116;28;20041;-78
2021/08/29 05:04:10;;;;;;;3.30;1.15;;;16.30;85.60;;;;;;5002281;28;20041;-78
2021/08/29 05:06:37;;;;;;;4.20;1.35;;;16.30;85.80;;;;;;5023290;28;20091;-78
2021/08/29 05:09:10;;;;;;;3.40;0.90;;;16.40;85.70;;;;;;5001333;28;20057;-78
2021/08/29 05:11:37;;;;;;;5.47;1.08;;;16.40;85.70;;;;;;5014528;28;20052;-78
2021/08/29 05:14:04;;;;;;;4.13;1.05;;;16.40;85.60;;;;;;5016845;28;20044;-79
2021/08/29 05:16:32;;;;;;;2.45;1.02;;;16.40;85.60;;;;;;5002424;28;20128;-78
2021/08/29 05:18:59;;;;;;;3.20;0.70;;;16.40;85.60;;;;;;5012547;28;20042;-78
2021/08/29 05:21:26;;;;;;;2.63;0.80;;;16.50;85.60;;;;;;5029833;28;20049;-78
2021/08/29 05:24:10;;;;;;;2.58;0.80;;;16.50;85.60;;;;;;5017404;28;20094;-78
2021/08/29 05:26:46;;;;;;;4.95;1.15;;;16.50;85.60;;;;;;5025968;28;20039;-78
2021/08/29 05:29:13;;;;;;;5.43;0.70;;;16.50;86.20;;;;;;5005356;28;20073;-78
2021/08/29 05:31:42;;;;;;;4.20;1.40;;;16.50;85.50;;;;;;5030366;28;20131;-79
2021/08/29 05:34:12;;;;;;;7.05;0.70;;;16.60;85.60;;;;;;5016958;28;20072;-78
2021/08/29 05:36:39;;;;;;;4.65;1.15;;;16.60;85.60;;;;;;5025256;28;20052;-78
2021/08/29 05:39:08;;;;;;;3.53;1.00;;;16.60;85.60;;;;;;4994755;28;20038;-79
2021/08/29 05:41:36;;;;;;;4.25;1.02;;;16.60;85.60;;;;;;4994409;28;20044;-78
2021/08/29 05:44:21;;;;;;;4.90;1.23;;;16.60;85.60;;;;;;5031188;28;20492;-78
2021/08/29 05:46:49;;;;;;;3.65;1.35;;;16.60;85.50;;;;;;5013923;28;20044;-77
2021/08/29 05:49:16;;;;;;;1.80;0.50;;;16.70;85.50;;;;;;5043935;28;20068;-78
2021/08/29 05:51:43;;;;;;;3.97;0.80;;;16.70;85.50;;;;;;5007916;28;20065;-78
2021/08/29 05:54:10;;;;;;;3.70;0.70;;;16.70;85.50;;;;;;5043243;28;20456;-77
2021/08/29 05:56:37;;;;;;;3.05;0.85;;;16.80;85.50;;;;;;5017098;28;20132;-78
2021/08/29 05:59:05;;;;;;;2.10;0.52;;;16.80;85.40;;;;;;5016357;28;20052;-78
2021/08/29 06:01:31;;;;;;;8.18;1.08;;;16.80;85.40;;;;;;5015436;28;20056;-79
2021/08/29 06:03:59;;;;;;;5.65;1.30;;;16.80;85.40;;;;;;5010734;28;20045;-79
2021/08/29 06:06:45;;;;;;;7.32;1.00;;;16.80;85.40;;;;;;5019562;28;20087;-78
2021/08/29 06:09:13;;;;;;;5.90;1.05;;;16.80;85.40;;;;;;5026451;28;20045;-78
2021/08/29 06:11:40;;;;;;;4.05;0.95;;;16.80;85.40;;;;;;5027933;28;20119;-78
2021/08/29 06:14:07;;;;;;;2.83;0.93;;;16.80;85.40;;;;;;5010018;28;20507;-78
2021/08/29 06:16:36;;;;;;;2.47;0.60;;;16.80;85.30;;;;;;5043687;28;20124;-78
2021/08/29 06:19:09;;;;;;;3.00;0.70;;;16.90;85.30;;;;;;5025783;28;20041;-78
2021/08/29 06:21:36;;;;;;;4.90;0.90;;;16.90;85.30;;;;;;4994101;28;20119;-78
2021/08/29 06:24:03;;;;;;;4.63;0.80;;;16.90;85.20;;;;;;5035570;28;20045;-78
2021/08/29 06:27:06;;;;;;;4.60;1.00;;;16.90;85.20;;;;;;4951194;28;20050;-78
2021/08/29 06:29:59;;;;;;;4.72;1.23;;;16.90;85.20;;;;;;5029639;28;20053;-79
2021/08/29 06:32:45;;;;;;;4.90;0.90;;;16.90;85.10;;;;;;5043263;28;20063;-78
2021/08/29 06:35:16;;;;;;;4.38;0.75;;;17.00;85.10;;;;;;5012409;28;20071;-79
2021/08/29 06:37:49;;;;;;;4.45;0.90;;;17.00;85.10;;;;;;5030682;28;20056;-78
2021/08/29 06:40:16;;;;;;;3.35;0.82;;;17.00;85.00;;;;;;5040893;28;20041;-78
2021/08/29 06:42:43;;;;;;;2.53;0.85;;;17.10;85.00;;;;;;4978913;28;20037;-78
2021/08/29 06:45:36;;;;;;;4.38;1.00;;;17.10;84.90;;;;;;5021243;28;20045;-78
2021/08/29 06:48:21;;;;;;;3.38;0.73;;;17.10;84.80;;;;;;5047862;28;20122;-78
2021/08/29 06:51:07;;;;;;;3.65;0.73;;;17.20;84.80;;;;;;5033801;28;20047;-78
2021/08/29 06:54:09;;;;;;;3.30;0.70;;;17.20;84.70;;;;;;4984539;28;20051;-78
2021/08/29 06:56:54;;;;;;;3.08;0.50;;;17.20;84.70;;;;;;5035164;28;20052;-78
2021/08/29 06:59:26;;;;;;;3.13;1.10;;;17.30;84.60;;;;;;4996952;28;20119;-78
2021/08/29 07:01:55;;;;;;;5.60;0.77;;;17.40;84.50;;;;;;5014933;28;20291;-78
2021/08/29 07:04:23;;;;;;;6.80;1.00;;;17.40;84.40;;;;;;5031154;28;20067;-78
2021/08/29 07:06:53;;;;;;;4.22;0.70;;;17.40;84.30;;;;;;5039199;28;20392;-78
2021/08/29 07:09:39;;;;;;;2.92;0.80;;;17.50;84.30;;;;;;5031080;28;20049;-78
2021/08/29 07:12:08;;;;;;;3.08;0.70;;;17.50;84.30;;;;;;5023060;28;20041;-78
2021/08/29 07:15:01;;;;;;;4.88;0.85;;;17.50;84.30;;;;;;5023027;28;20509;-78
2021/08/29 07:17:28;;;;;;;3.97;0.70;;;17.50;84.30;;;;;;4997796;28;20503;-78
2021/08/29 07:19:56;;;;;;;3.75;0.70;;;17.50;84.30;;;;;;5042738;28;20045;-79
2021/08/29 07:22:41;;;;;;;4.32;0.98;;;17.40;84.30;;;;;;5020170;28;20043;-78
2021/08/29 07:25:27;;;;;;;4.68;1.10;;;17.40;84.40;;;;;;5040319;28;20045;-78
2021/08/29 07:28:12;;;;;;;3.40;0.77;;;17.30;84.50;;;;;;5049102;28;20057;-78
2021/08/29 07:30:59;;;;;;;4.28;0.77;;;17.30;84.60;;;;;;5027042;28;20052;-74
2021/08/29 07:33:27;;;;;;;3.03;0.80;;;17.30;84.70;;;;;;5001827;28;20171;-75
2021/08/29 07:36:10;;;;;;;3.38;0.80;;;17.30;84.80;;;;;;5031027;28;20040;-75
2021/08/29 07:38:40;;;;;;;6.13;1.00;;;17.30;84.80;;;;;;5036403;28;20516;-75
2021/08/29 07:41:07;;;;;;;2.85;0.60;;;17.40;84.70;;;;;;5031373;28;20103;-75
2021/08/29 07:43:34;;;;;;;4.63;0.73;;;17.40;84.60;;;;;;5036258;28;20043;-75
2021/08/29 07:46:07;;;;;;;4.15;1.05;;;17.40;84.60;;;;;;5037316;28;21397;-75
2021/08/29 07:48:35;;;;;;;5.55;0.80;;;17.40;84.70;;;;;;5018277;28;20428;-75
2021/08/29 07:51:03;;;;;;;4.63;0.80;;;17.40;84.70;;;;;;5015071;28;20072;-75
2021/08/29 07:53:46;;;;;;;4.05;0.70;;;17.40;84.80;;;;;;5019124;28;20393;-76
2021/08/29 07:56:33;;;;;;;3.08;0.70;;;17.40;85.00;;;;;;5026469;28;20508;-76
2021/08/29 07:59:00;;;;;;;3.28;0.90;;;17.30;85.00;;;;;;5031484;28;20051;-75
2021/08/29 08:01:27;;;;;;;4.13;0.90;;;17.30;85.20;;;;;;5048282;28;20033;-75
2021/08/29 08:04:15;;;;;;;2.08;0.70;;;17.20;85.40;;;;;;5038586;28;20068;-77
2021/08/29 08:07:00;;;;;;;3.90;0.80;;;17.00;85.80;;;;;;5014779;28;20042;-77
2021/08/29 08:09:45;;;;;;;2.38;0.73;;;16.90;86.20;;;;;;5061805;28;20052;-76
2021/08/29 08:12:38;;;;;;;3.42;0.50;;;16.80;86.40;;;;;;5024988;28;20120;-82
2021/08/29 08:15:06;;;;;;;3.40;0.70;;;16.80;86.60;;;;;;5043196;28;20037;-81
2021/08/29 08:17:33;;;;;;;4.22;0.95;;;16.70;86.80;;;;;;5014837;28;20037;-81
2021/08/29 08:20:00;;;;;;;4.75;1.02;;;16.70;87.00;;;;;;5020957;28;20401;-81
2021/08/29 08:22:29;;;;;;;4.13;0.70;;;16.70;87.20;;;;;;5037062;28;20045;-81
2021/08/29 08:25:23;;;;;;;4.22;0.75;;;16.70;87.20;;;;;;5010504;28;20517;-79
2021/08/29 08:28:08;;;;;;;3.22;0.70;;;16.70;87.40;;;;;;5033508;28;20588;-78
2021/08/29 08:30:54;;;;;;;5.05;0.98;;;16.70;87.50;;;;;;5034545;28;20134;-81
2021/08/29 08:33:39;;;;;;;7.13;1.00;;;16.60;87.80;;;;;;5009320;28;20048;-83
2021/08/29 08:36:39;;;;;;;2.20;0.65;;;16.50;88.10;;;;;;5014502;28;20132;-79
2021/08/29 08:39:29;;;;;;;3.10;0.98;;;16.40;88.20;;;;;;5040920;28;20048;-80
2021/08/29 08:42:07;;;;;;;4.28;1.05;;;16.40;88.20;;;;;;5037946;28;20454;-80
2021/08/29 08:44:53;;;;;;;3.45;0.80;;;16.30;88.30;;;;;;5027925;28;20413;-78
2021/08/29 08:47:43;;;;;;;3.97;1.00;;;16.30;88.30;;;;;;5009548;28;20577;-82
2021/08/29 08:50:29;;;;;;;4.88;1.23;;;16.30;88.50;;;;;;5053715;28;20059;-81
2021/08/29 08:53:18;;;;;;;4.22;1.13;;;16.30;88.70;;;;;;5026173;28;20408;-80
2021/08/29 08:56:24;;;;;;;4.07;1.00;;;16.30;88.90;;;;;;4962197;28;20047;-81
2021/08/29 08:59:01;;;;;;;2.85;0.93;;;16.30;89.00;;;;;;4950916;28;20098;-81
2021/08/29 09:01:47;;;;;;;3.72;0.70;;;16.30;89.00;;;;;;4990829;28;20070;-80
2021/08/29 09:04:50;;;;;;;2.72;0.80;;;16.40;88.80;;;;;;5002930;28;20136;-81
2021/08/29 09:07:19;;;;;;;3.88;0.80;;;16.40;88.70;;;;;;5024906;28;20049;-81
2021/08/29 09:09:46;;;;;;;4.30;0.95;;;16.40;88.80;;;;;;5008076;28;20468;-81
2021/08/29 09:12:13;;;;;;;2.75;0.77;;;16.40;88.90;;;;;;5003417;28;20137;-80
2021/08/29 09:14:49;;;;;;;3.75;0.60;;;16.40;89.00;;;;;;4988820;28;20057;-82
2021/08/29 09:17:40;;;;;;;3.15;0.90;;;16.40;89.10;;;;;;5000526;28;20080;-80
2021/08/29 09:20:23;;;;;;;3.95;0.70;;;16.40;89.30;;;;;;5002865;28;20062;-82
2021/08/29 09:22:57;;;;;;;2.88;0.73;;;16.50;89.40;;;;;;5015614;28;20440;-80
2021/08/29 09:25:53;;;;;;;3.35;0.82;;;16.50;89.30;;;;;;5020370;28;20417;-81
2021/08/29 09:28:34;;;;;;;3.53;0.90;;;16.60;89.40;;;;;;5026378;28;20044;-81
2021/08/29 09:31:05;;;;;;;2.55;0.75;;;16.60;89.30;;;;;;5018618;28;20045;-78
2021/08/29 09:33:32;;;;;;;2.63;0.90;;;16.60;89.40;;;;;;4999381;28;20828;-78
2021/08/29 09:36:03;;;;;;;6.65;1.08;;;16.50;89.40;;;;;;5018116;28;20056;-78
2021/08/29 09:38:38;;;;;;;2.25;0.60;;;16.50;89.70;;;;;;5041809;28;20489;-81
2021/08/29 09:41:24;;;;;;;4.75;0.80;;;16.50;89.70;;;;;;5036850;28;20071;-81
2021/08/29 09:44:22;;;;;;;5.18;0.80;;;16.50;89.80;;;;;;4996375;28;20050;-80
2021/08/29 09:47:29;;;;;;;2.67;0.70;;;16.50;90.00;;;;;;5010632;28;20042;-86
2021/08/29 09:50:18;;;;;;;3.30;0.77;;;16.50;90.10;;;;;;5005397;28;20061;-84
2021/08/29 09:53:16;;;;;;;2.50;0.70;;;16.40;90.20;;;;;;5021224;28;20498;-84
2021/08/29 09:56:27;;;;;;;6.25;0.90;;;16.50;90.20;;;;;;5033452;28;20115;-84
2021/08/29 09:59:41;;;;;;;3.80;0.60;;;16.50;90.20;;;;;;5028816;28;20484;-83
2021/08/29 10:02:29;;;;;;;3.38;0.80;;;16.50;90.20;;;;;;5033259;28;20059;-83
2021/08/29 10:05:17;;;;;;;3.25;0.60;;;16.60;90.20;;;;;;5019751;28;20485;-83
2021/08/29 10:08:09;;;;;;;3.75;0.65;;;16.60;90.20;;;;;;5052395;28;20045;-84
2021/08/29 10:10:45;;;;;;;5.07;0.80;;;16.60;90.20;;;;;;5015510;28;20053;-83
2021/08/29 10:13:16;;;;;;;2.90;0.52;;;16.60;90.40;;;;;;5011937;28;20042;-83
2021/08/29 10:16:05;;;;;;;4.10;0.65;;;16.50;90.40;;;;;;5033947;28;20040;-79
2021/08/29 10:18:53;;;;;;;1.40;0.40;;;16.50;90.50;;;;;;5041114;28;20401;-80
2021/08/29 10:21:38;;;;;;;1.67;0.40;;;16.40;90.60;;;;;;5040753;28;20056;-84
2021/08/29 10:24:06;;;;;;;1.95;0.50;;;16.50;90.90;;;;;;5021191;28;20045;-83
2021/08/29 10:26:34;;;;;;;2.63;0.50;;;16.50;90.50;;;;;;5011810;28;20041;-83
2021/08/29 10:29:28;;;;;;;3.17;0.60;;;16.60;90.60;;;;;;5054989;28;20043;-83
2021/08/29 10:32:28;;;;;;;2.70;0.40;;;16.60;90.60;;;;;;5053482;28;20049;-83
2021/08/29 10:35:15;;;;;;;2.63;0.57;;;16.70;90.50;;;;;;5029963;28;20421;-85
2021/08/29 10:37:46;;;;;;;2.45;0.47;;;16.70;90.50;;;;;;5029110;28;20060;-83
2021/08/29 10:40:32;;;;;;;0.98;0.50;;;16.70;90.50;;;;;;5030937;28;20416;-88
2021/08/29 10:43:13;;;;;;;2.20;0.40;;;16.60;90.60;;;;;;4987834;28;20128;-88
2021/08/29 10:46:01;;;;;;;1.67;0.40;;;16.70;90.60;;;;;;5044203;28;20115;-91
2021/08/29 10:48:51;;;;;;;2.17;0.75;;;16.70;90.60;;;;;;5030634;28;20037;-88
2021/08/29 10:51:35;;;;;;;1.33;0.60;;;16.70;90.70;;;;;;5035908;28;20560;-86
2021/08/29 10:54:12;;;;;;;3.58;0.57;;;16.70;90.70;;;;;;5007190;28;20041;-88
2021/08/29 10:56:42;;;;;;;5.38;0.52;;;16.70;90.70;;;;;;5026573;28;20079;-88
2021/08/29 10:59:20;;;;;;;0.90;0.40;;;16.70;91.00;;;;;;5016084;28;20077;-86
2021/08/29 11:02:08;;;;;;;1.92;0.50;;;16.70;90.70;;;;;;5021353;28;20574;-87
2021/08/29 11:04:45;;;;;;;2.45;0.45;;;16.70;90.70;;;;;;5021766;28;20041;-87
2021/08/29 11:07:37;;;;;;;1.20;0.20;;;16.80;90.70;;;;;;5014421;28;20045;-85
2021/08/29 11:10:06;;;;;;;0.65;0.20;;;16.80;90.80;;;;;;4981402;28;20050;-80
2021/08/29 11:12:36;;;;;;;1.90;0.40;;;16.80;90.70;;;;;;4981585;28;20041;-81
2021/08/29 11:15:09;;;;;;;1.50;0.35;;;16.80;90.70;;;;;;4998610;28;20050;-79
2021/08/29 11:17:39;;;;;;;0.93;0.30;;;16.80;90.80;;;;;;5004631;28;20133;-78
2021/08/29 11:20:12;;;;;;;1.50;0.30;;;16.80;90.80;;;;;;5012602;28;20048;-77
2021/08/29 11:22:44;;;;;;;2.10;0.40;;;16.90;90.80;;;;;;5009799;28;20042;-80
2021/08/29 11:25:30;;;;;;;0.22;0.10;;;16.90;90.80;;;;;;5031948;28;20052;-79
2021/08/29 11:28:30;;;;;;;0.93;0.20;;;16.90;90.80;;;;;;5004852;28;20045;-79
2021/08/29 11:31:49;;;;;;;0.85;0.10;;;16.90;90.80;;;;;;5005153;28;20061;-80
2021/08/29 11:34:18;;;;;;;1.25;0.30;;;17.00;90.80;;;;;;5009922;28;20152;-79
2021/08/29 11:36:45;;;;;;;0.35;0.10;;;16.90;90.80;;;;;;5011038;28;20046;-77
2021/08/29 11:39:37;;;;;;;0.40;0.20;;;16.80;90.90;;;;;;5027904;28;20501;-78
2021/08/29 11:42:15;;;;;;;0.75;0.20;;;16.80;91.00;;;;;;5026595;28;20049;-78
2021/08/29 11:44:44;;;;;;;1.25;0.20;;;16.90;91.00;;;;;;4998020;28;20041;-78
2021/08/29 11:47:13;;;;;;;0.25;0.10;;;16.90;90.90;;;;;;5012890;28;20059;-77
2021/08/29 11:50:00;;;;;;;1.25;0.20;;;17.00;90.90;;;;;;5026082;28;20047;-78
2021/08/29 11:52:29;;;;;;;0.47;0.13;;;17.00;90.90;;;;;;4996235;28;20041;-77
2021/08/29 11:55:06;;;;;;;0.10;0.10;;;17.10;90.90;;;;;;4979888;28;20535;-78
2021/08/29 11:57:53;;;;;;;0.28;0.10;;;17.10;90.90;;;;;;5015166;28;20147;-77
2021/08/29 12:00:26;;;;;;;1.25;0.17;;;17.20;90.80;;;;;;5033338;28;20057;-77
2021/08/29 12:03:16;;;;;;;0.25;0.15;;;17.20;90.80;;;;;;5052491;28;20045;-77
2021/08/29 12:05:58;;;;;;;1.17;0.30;;;17.20;90.80;;;;;;5017960;28;20573;-78
2021/08/29 12:08:51;;;;;;;0.50;0.20;;;17.30;90.90;;;;;;5009240;28;20048;-78
2021/08/29 12:11:39;;;;;;;1.23;0.30;;;17.30;90.80;;;;;;5053434;28;20056;-78
2021/08/29 12:14:27;;;;;;;1.48;0.20;;;17.30;90.80;;;;;;5027241;28;20107;-79
2021/08/29 12:17:13;;;;;;;1.85;0.30;;;17.30;90.90;;;;;;5036593;28;20397;-78
2021/08/29 12:19:41;;;;;;;2.28;0.30;;;17.30;90.90;;;;;;5017953;28;20448;-79
2021/08/29 12:22:35;;;;;;;0.70;0.20;;;17.30;90.90;;;;;;5044835;28;20041;-79
2021/08/29 12:25:22;;;;;;;1.48;0.40;;;17.30;90.90;;;;;;5019737;28;20048;-78
2021/08/29 12:27:51;;;;;;;2.22;0.60;;;17.40;90.90;;;;;;5024468;28;20452;-78
2021/08/29 12:30:19;;;;;;;2.28;0.80;;;17.40;90.80;;;;;;5022576;28;20075;-78
2021/08/29 12:32:50;;;;;;;2.03;0.85;;;17.40;90.80;;;;;;5046899;28;20501;-78
2021/08/29 12:35:18;;;;;;;1.38;0.60;;;17.50;90.80;;;;;;5028877;28;20045;-78
2021/08/29 12:37:47;;;;;;;1.38;0.60;;;17.50;90.80;;;;;;5018149;28;20048;-78
2021/08/29 12:40:17;;;;;;;2.95;0.70;;;17.50;90.80;;;;;;5033575;28;20053;-78
2021/08/29 12:42:47;;;;;;;3.35;1.00;;;17.60;90.80;;;;;;5022636;28;20508;-78
2021/08/29 12:45:24;;;;;;;1.98;0.90;;;17.50;90.90;;;;;;5022659;28;20408;-77
2021/08/29 12:47:51;;;;;;;1.98;0.70;;;17.50;90.90;;;;;;5020054;28;20045;-80
2021/08/29 12:50:21;;;;;;;1.35;0.70;;;17.50;90.90;;;;;;5003500;28;20780;-80
2021/08/29 12:52:52;;;;;;;4.50;1.05;;;17.60;90.90;;;;;;5033153;28;20078;-81
2021/08/29 12:55:22;;;;;;;3.80;0.88;;;17.60;90.90;;;;;;5050545;28;20045;-80
2021/08/29 12:58:01;;;;;;;2.85;1.33;;;17.70;90.90;;;;;;5038786;28;20496;-80
2021/08/29 13:00:39;;;;;;;2.97;1.17;;;17.70;90.80;;;;;;5003634;28;20057;-80
2021/08/29 13:03:09;;;;;;;3.30;0.85;;;17.70;90.80;;;;;;5018178;28;20045;-80
2021/08/29 13:05:42;;;;;;;1.48;0.70;;;17.80;90.80;;;;;;5027409;28;20037;-79
2021/08/29 13:08:10;;;;;;;2.90;1.17;;;17.80;90.80;;;;;;5021147;28;20092;-80
2021/08/29 13:10:38;;;;;;;4.28;0.90;;;17.80;90.80;;;;;;4981070;28;20076;-79
2021/08/29 13:13:13;;;;;;;2.92;0.80;;;17.90;90.70;;;;;;5031587;28;20111;-79
2021/08/29 13:15:42;;;;;;;2.67;1.10;;;17.90;90.70;;;;;;4996986;28;20104;-80
2021/08/29 13:18:10;;;;;;;2.35;0.88;;;17.90;90.70;;;;;;5002601;28;20133;-78
2021/08/29 13:20:41;;;;;;;2.15;0.95;;;17.90;90.70;;;;;;5017791;28;20418;-78
2021/08/29 13:23:33;;;;;;;2.60;0.88;;;17.90;90.70;;;;;;5013744;28;20069;-79
2021/08/29 13:26:02;;;;;;;1.63;0.52;;;17.90;90.80;;;;;;5039415;28;20117;-79
2021/08/29 13:28:31;;;;;;;1.52;0.50;;;17.80;90.90;;;;;;5038260;28;20865;-80
2021/08/29 13:31:02;;;;;;;1.63;0.70;;;17.80;91.20;;;;;;4996197;28;20077;-79